sensor_id;sensor_type;location;lat;lon;timestamp;pressure;altitude;pressure_sealevel;temperature;humidity
61488;BME280;47351;53.326;-6.298;2023-02-24T00:00:15;101917.36;;;6.58;80.52
61488;BME280;47351;53.326;-6.298;2023-02-24T00:03:39;101914.52;;;6.58;80.76
61488;BME280;47351;53.326;-6.298;2023-02-24T00:06:51;101915.52;;;6.59;80.82
61488;BME280;47351;53.326;-6.298;2023-02-24T00:10:00;101909.54;;;6.61;80.80
61488;BME280;47351;53.326;-6.298;2023-02-24T00:13:10;101905.84;;;6.63;80.72
61488;BME280;47351;53.326;-6.298;2023-02-24T00:16:19;101907.11;;;6.65;80.77
61488;BME280;47351;53.326;-6.298;2023-02-24T00:19:32;101898.74;;;6.66;80.79
61488;BME280;47351;53.326;-6.298;2023-02-24T00:22:42;101897.48;;;6.66;80.74
61488;BME280;47351;53.326;-6.298;2023-02-24T00:25:44;101897.54;;;6.65;80.75
61488;BME280;47351;53.326;-6.298;2023-02-24T00:28:53;101908.38;;;6.65;80.77
61488;BME280;47351;53.326;-6.298;2023-02-24T00:32:02;101906.86;;;6.64;80.84
61488;BME280;47351;53.326;-6.298;2023-02-24T00:35:19;101902.35;;;6.62;80.76
61488;BME280;47351;53.326;-6.298;2023-02-24T00:38:28;101901.98;;;6.60;80.81
61488;BME280;47351;53.326;-6.298;2023-02-24T00:41:37;101898.40;;;6.58;80.74
61488;BME280;47351;53.326;-6.298;2023-02-24T00:44:47;101898.58;;;6.55;80.84
61488;BME280;47351;53.326;-6.298;2023-02-24T00:48:00;101899.08;;;6.53;80.89
61488;BME280;47351;53.326;-6.298;2023-02-24T00:51:11;101888.39;;;6.51;81.07
61488;BME280;47351;53.326;-6.298;2023-02-24T00:54:20;101889.58;;;6.49;81.12
61488;BME280;47351;53.326;-6.298;2023-02-24T00:58:09;101890.83;;;6.46;81.23
61488;BME280;47351;53.326;-6.298;2023-02-24T01:01:40;101878.89;;;6.44;81.32
61488;BME280;47351;53.326;-6.298;2023-02-24T01:05:28;101877.00;;;6.43;81.36
61488;BME280;47351;53.326;-6.298;2023-02-24T01:08:57;101878.48;;;6.42;81.51
61488;BME280;47351;53.326;-6.298;2023-02-24T01:13:02;101871.48;;;6.41;81.59
61488;BME280;47351;53.326;-6.298;2023-02-24T01:16:34;101868.59;;;6.39;81.67
61488;BME280;47351;53.326;-6.298;2023-02-24T01:19:44;101867.50;;;6.37;81.75
61488;BME280;47351;53.326;-6.298;2023-02-24T01:22:58;101869.06;;;6.35;81.74
61488;BME280;47351;53.326;-6.298;2023-02-24T01:26:08;101865.63;;;6.33;81.83
61488;BME280;47351;53.326;-6.298;2023-02-24T01:29:19;101857.30;;;6.31;81.90
61488;BME280;47351;53.326;-6.298;2023-02-24T01:32:29;101849.14;;;6.28;82.13
61488;BME280;47351;53.326;-6.298;2023-02-24T01:35:39;101842.38;;;6.26;82.11
61488;BME280;47351;53.326;-6.298;2023-02-24T01:38:50;101837.31;;;6.24;82.29
61488;BME280;47351;53.326;-6.298;2023-02-24T01:42:00;101841.70;;;6.22;82.54
61488;BME280;47351;53.326;-6.298;2023-02-24T01:45:14;101843.14;;;6.22;82.61
61488;BME280;47351;53.326;-6.298;2023-02-24T01:48:24;101841.34;;;6.22;82.72
61488;BME280;47351;53.326;-6.298;2023-02-24T01:51:35;101830.10;;;6.23;82.91
61488;BME280;47351;53.326;-6.298;2023-02-24T01:54:47;101821.06;;;6.23;83.01
61488;BME280;47351;53.326;-6.298;2023-02-24T01:57:58;101823.90;;;6.23;83.05
61488;BME280;47351;53.326;-6.298;2023-02-24T02:01:08;101823.55;;;6.23;83.13
61488;BME280;47351;53.326;-6.298;2023-02-24T02:04:19;101828.70;;;6.23;83.23
61488;BME280;47351;53.326;-6.298;2023-02-24T02:07:28;101824.41;;;6.24;83.25
61488;BME280;47351;53.326;-6.298;2023-02-24T02:10:37;101821.70;;;6.25;83.28
61488;BME280;47351;53.326;-6.298;2023-02-24T02:13:47;101807.10;;;6.26;83.44
61488;BME280;47351;53.326;-6.298;2023-02-24T02:17:01;101796.54;;;6.27;83.53
61488;BME280;47351;53.326;-6.298;2023-02-24T02:23:46;101785.60;;;6.29;83.62
61488;BME280;47351;53.326;-6.298;2023-02-24T02:27:05;101786.02;;;6.31;83.72
61488;BME280;47351;53.326;-6.298;2023-02-24T02:30:27;101778.02;;;6.31;83.66
61488;BME280;47351;53.326;-6.298;2023-02-24T02:37:01;101776.86;;;6.32;83.64
61488;BME280;47351;53.326;-6.298;2023-02-24T02:40:14;101773.29;;;6.33;83.74
61488;BME280;47351;53.326;-6.298;2023-02-24T02:43:30;101771.64;;;6.34;83.77
61488;BME280;47351;53.326;-6.298;2023-02-24T02:46:41;101764.53;;;6.34;83.85
61488;BME280;47351;53.326;-6.298;2023-02-24T02:50:10;101757.35;;;6.35;83.76
61488;BME280;47351;53.326;-6.298;2023-02-24T02:53:26;101754.62;;;6.36;83.82
61488;BME280;47351;53.326;-6.298;2023-02-24T02:56:43;101755.75;;;6.38;83.94
61488;BME280;47351;53.326;-6.298;2023-02-24T02:59:54;101746.23;;;6.39;83.96
61488;BME280;47351;53.326;-6.298;2023-02-24T03:03:00;101736.95;;;6.40;83.98
61488;BME280;47351;53.326;-6.298;2023-02-24T03:06:12;101735.55;;;6.40;84.03
61488;BME280;47351;53.326;-6.298;2023-02-24T03:09:23;101735.20;;;6.40;84.04
61488;BME280;47351;53.326;-6.298;2023-02-24T03:12:32;101740.17;;;6.40;84.16
61488;BME280;47351;53.326;-6.298;2023-02-24T03:15:44;101739.86;;;6.42;84.32
61488;BME280;47351;53.326;-6.298;2023-02-24T03:18:56;101735.46;;;6.44;84.23
61488;BME280;47351;53.326;-6.298;2023-02-24T03:22:08;101737.52;;;6.44;84.13
61488;BME280;47351;53.326;-6.298;2023-02-24T03:25:13;101735.14;;;6.43;84.11
61488;BME280;47351;53.326;-6.298;2023-02-24T03:28:23;101726.63;;;6.41;84.01
61488;BME280;47351;53.326;-6.298;2023-02-24T03:31:53;101720.98;;;6.35;84.07
61488;BME280;47351;53.326;-6.298;2023-02-24T03:35:15;101720.58;;;6.31;84.17
61488;BME280;47351;53.326;-6.298;2023-02-24T03:38:26;101717.79;;;6.27;84.32
61488;BME280;47351;53.326;-6.298;2023-02-24T03:41:39;101717.11;;;6.24;84.43
61488;BME280;47351;53.326;-6.298;2023-02-24T03:44:50;101707.88;;;6.22;84.56
61488;BME280;47351;53.326;-6.298;2023-02-24T03:47:59;101704.52;;;6.20;84.58
61488;BME280;47351;53.326;-6.298;2023-02-24T03:51:13;101703.17;;;6.16;84.58
61488;BME280;47351;53.326;-6.298;2023-02-24T03:54:27;101703.17;;;6.13;84.80
61488;BME280;47351;53.326;-6.298;2023-02-24T03:57:53;101697.77;;;6.12;84.98
61488;BME280;47351;53.326;-6.298;2023-02-24T04:01:09;101702.39;;;6.12;84.99
61488;BME280;47351;53.326;-6.298;2023-02-24T04:04:23;101705.80;;;6.11;84.89
61488;BME280;47351;53.326;-6.298;2023-02-24T04:07:36;101703.25;;;6.07;84.89
61488;BME280;47351;53.326;-6.298;2023-02-24T04:10:48;101698.63;;;6.04;85.07
61488;BME280;47351;53.326;-6.298;2023-02-24T04:13:59;101698.73;;;6.06;85.26
61488;BME280;47351;53.326;-6.298;2023-02-24T04:17:13;101691.15;;;6.08;85.38
61488;BME280;47351;53.326;-6.298;2023-02-24T04:20:21;101692.55;;;6.11;85.45
61488;BME280;47351;53.326;-6.298;2023-02-24T04:23:37;101691.16;;;6.13;85.55
61488;BME280;47351;53.326;-6.298;2023-02-24T04:26:47;101683.95;;;6.15;85.57
61488;BME280;47351;53.326;-6.298;2023-02-24T04:29:58;101679.38;;;6.17;85.56
61488;BME280;47351;53.326;-6.298;2023-02-24T04:33:11;101675.08;;;6.17;85.58
61488;BME280;47351;53.326;-6.298;2023-02-24T04:36:21;101675.02;;;6.18;85.62
61488;BME280;47351;53.326;-6.298;2023-02-24T04:39:30;101681.76;;;6.18;85.73
61488;BME280;47351;53.326;-6.298;2023-02-24T04:42:39;101680.35;;;6.20;85.89
61488;BME280;47351;53.326;-6.298;2023-02-24T04:45:53;101673.61;;;6.23;85.95
61488;BME280;47351;53.326;-6.298;2023-02-24T04:49:03;101668.91;;;6.24;85.97
61488;BME280;47351;53.326;-6.298;2023-02-24T04:52:12;101670.80;;;6.25;86.03
61488;BME280;47351;53.326;-6.298;2023-02-24T04:55:23;101669.28;;;6.26;86.09
61488;BME280;47351;53.326;-6.298;2023-02-24T04:58:33;101664.95;;;6.28;86.13
61488;BME280;47351;53.326;-6.298;2023-02-24T05:01:43;101661.25;;;6.28;86.09
61488;BME280;47351;53.326;-6.298;2023-02-24T05:04:52;101650.96;;;6.28;86.16
61488;BME280;47351;53.326;-6.298;2023-02-24T05:08:02;101654.84;;;6.28;86.23
61488;BME280;47351;53.326;-6.298;2023-02-24T05:11:15;101651.04;;;6.29;86.25
61488;BME280;47351;53.326;-6.298;2023-02-24T05:14:25;101645.08;;;6.31;86.32
61488;BME280;47351;53.326;-6.298;2023-02-24T05:17:34;101640.89;;;6.32;86.52
61488;BME280;47351;53.326;-6.298;2023-02-24T05:20:45;101636.55;;;6.33;86.52
61488;BME280;47351;53.326;-6.298;2023-02-24T05:24:12;101628.77;;;6.35;86.58
61488;BME280;47351;53.326;-6.298;2023-02-24T05:27:24;101629.61;;;6.39;86.63
61488;BME280;47351;53.326;-6.298;2023-02-24T05:30:35;101628.48;;;6.39;86.64
61488;BME280;47351;53.326;-6.298;2023-02-24T05:33:46;101632.63;;;6.39;86.65
61488;BME280;47351;53.326;-6.298;2023-02-24T05:36:55;101628.13;;;6.37;86.56
61488;BME280;47351;53.326;-6.298;2023-02-24T05:40:06;101624.80;;;6.34;86.59
61488;BME280;47351;53.326;-6.298;2023-02-24T05:43:17;101619.92;;;6.33;86.78
61488;BME280;47351;53.326;-6.298;2023-02-24T05:46:27;101624.71;;;6.33;86.80
61488;BME280;47351;53.326;-6.298;2023-02-24T05:49:38;101634.56;;;6.34;86.81
61488;BME280;47351;53.326;-6.298;2023-02-24T05:52:50;101640.65;;;6.36;86.86
61488;BME280;47351;53.326;-6.298;2023-02-24T05:56:00;101643.68;;;6.38;86.94
61488;BME280;47351;53.326;-6.298;2023-02-24T05:59:09;101646.72;;;6.40;86.89
61488;BME280;47351;53.326;-6.298;2023-02-24T06:02:19;101644.73;;;6.43;87.01
61488;BME280;47351;53.326;-6.298;2023-02-24T06:05:34;101645.08;;;6.45;87.01
61488;BME280;47351;53.326;-6.298;2023-02-24T06:08:46;101645.15;;;6.47;87.02
61488;BME280;47351;53.326;-6.298;2023-02-24T06:11:59;101648.27;;;6.48;86.94
61488;BME280;47351;53.326;-6.298;2023-02-24T06:15:10;101651.83;;;6.48;86.82
61488;BME280;47351;53.326;-6.298;2023-02-24T06:18:18;101650.45;;;6.47;86.79
61488;BME280;47351;53.326;-6.298;2023-02-24T06:21:28;101646.94;;;6.47;86.84
61488;BME280;47351;53.326;-6.298;2023-02-24T06:24:37;101648.88;;;6.47;86.97
61488;BME280;47351;53.326;-6.298;2023-02-24T06:27:50;101642.91;;;6.48;87.00
61488;BME280;47351;53.326;-6.298;2023-02-24T06:31:03;101635.02;;;6.50;87.04
61488;BME280;47351;53.326;-6.298;2023-02-24T06:34:14;101631.16;;;6.52;87.18
61488;BME280;47351;53.326;-6.298;2023-02-24T06:37:27;101631.48;;;6.55;87.29
61488;BME280;47351;53.326;-6.298;2023-02-24T06:40:37;101628.13;;;6.57;87.35
61488;BME280;47351;53.326;-6.298;2023-02-24T06:43:46;101631.36;;;6.59;87.35
61488;BME280;47351;53.326;-6.298;2023-02-24T06:46:55;101633.74;;;6.60;87.27
61488;BME280;47351;53.326;-6.298;2023-02-24T06:50:06;101628.71;;;6.61;87.27
61488;BME280;47351;53.326;-6.298;2023-02-24T06:53:15;101622.66;;;6.62;87.34
61488;BME280;47351;53.326;-6.298;2023-02-24T06:56:19;101619.47;;;6.62;87.37
61488;BME280;47351;53.326;-6.298;2023-02-24T06:59:28;101621.79;;;6.61;87.39
61488;BME280;47351;53.326;-6.298;2023-02-24T07:02:33;101611.41;;;6.63;87.40
61488;BME280;47351;53.326;-6.298;2023-02-24T07:05:47;101601.09;;;6.65;87.53
61488;BME280;47351;53.326;-6.298;2023-02-24T07:08:57;101601.20;;;6.69;87.59
61488;BME280;47351;53.326;-6.298;2023-02-24T07:12:06;101604.34;;;6.72;87.69
61488;BME280;47351;53.326;-6.298;2023-02-24T07:15:18;101610.58;;;6.74;87.63
61488;BME280;47351;53.326;-6.298;2023-02-24T07:18:26;101607.73;;;6.74;87.51
61488;BME280;47351;53.326;-6.298;2023-02-24T07:21:37;101611.27;;;6.74;87.48
61488;BME280;47351;53.326;-6.298;2023-02-24T07:24:47;101613.45;;;6.73;87.45
61488;BME280;47351;53.326;-6.298;2023-02-24T07:27:57;101615.54;;;6.72;87.43
61488;BME280;47351;53.326;-6.298;2023-02-24T07:31:09;101611.48;;;6.71;87.53
61488;BME280;47351;53.326;-6.298;2023-02-24T07:34:19;101607.31;;;6.73;87.51
61488;BME280;47351;53.326;-6.298;2023-02-24T07:37:30;101612.96;;;6.75;87.64
61488;BME280;47351;53.326;-6.298;2023-02-24T07:40:39;101610.59;;;6.79;87.80
61488;BME280;47351;53.326;-6.298;2023-02-24T07:43:49;101604.21;;;6.84;87.79
61488;BME280;47351;53.326;-6.298;2023-02-24T07:46:59;101604.23;;;6.88;87.88
61488;BME280;47351;53.326;-6.298;2023-02-24T07:50:29;101593.00;;;6.91;87.94
61488;BME280;47351;53.326;-6.298;2023-02-24T07:53:39;101591.01;;;6.94;87.88
61488;BME280;47351;53.326;-6.298;2023-02-24T07:56:49;101591.77;;;6.96;87.95
61488;BME280;47351;53.326;-6.298;2023-02-24T08:00:04;101596.69;;;6.99;87.89
61488;BME280;47351;53.326;-6.298;2023-02-24T08:03:26;101592.35;;;7.03;87.80
61488;BME280;47351;53.326;-6.298;2023-02-24T08:06:40;101591.67;;;7.07;87.71
61488;BME280;47351;53.326;-6.298;2023-02-24T08:09:54;101591.50;;;7.12;87.69
61488;BME280;47351;53.326;-6.298;2023-02-24T08:13:26;101595.13;;;7.15;87.50
61488;BME280;47351;53.326;-6.298;2023-02-24T08:16:38;101600.55;;;7.19;87.43
61488;BME280;47351;53.326;-6.298;2023-02-24T08:19:48;101599.44;;;7.22;87.29
61488;BME280;47351;53.326;-6.298;2023-02-24T08:22:57;101596.19;;;7.25;87.31
61488;BME280;47351;53.326;-6.298;2023-02-24T08:26:07;101599.84;;;7.28;87.24
61488;BME280;47351;53.326;-6.298;2023-02-24T08:29:19;101602.16;;;7.31;87.16
61488;BME280;47351;53.326;-6.298;2023-02-24T08:32:28;101598.06;;;7.30;87.02
61488;BME280;47351;53.326;-6.298;2023-02-24T08:35:40;101600.77;;;7.30;86.89
61488;BME280;47351;53.326;-6.298;2023-02-24T08:38:51;101604.83;;;7.30;86.96
61488;BME280;47351;53.326;-6.298;2023-02-24T08:42:01;101603.62;;;7.32;87.02
61488;BME280;47351;53.326;-6.298;2023-02-24T08:44:50;101607.79;;;7.36;87.06
61488;BME280;47351;53.326;-6.298;2023-02-24T08:48:00;101610.02;;;7.39;87.07
61488;BME280;47351;53.326;-6.298;2023-02-24T08:51:26;101608.73;;;7.52;86.89
61488;BME280;47351;53.326;-6.298;2023-02-24T08:54:35;101607.55;;;7.67;86.66
61488;BME280;47351;53.326;-6.298;2023-02-24T08:57:54;101602.34;;;7.75;86.46
61488;BME280;47351;53.326;-6.298;2023-02-24T09:01:11;101599.91;;;7.81;86.27
61488;BME280;47351;53.326;-6.298;2023-02-24T09:04:26;101601.02;;;7.87;86.20
61488;BME280;47351;53.326;-6.298;2023-02-24T09:07:35;101596.00;;;7.95;85.93
61488;BME280;47351;53.326;-6.298;2023-02-24T09:10:45;101592.96;;;8.00;85.78
61488;BME280;47351;53.326;-6.298;2023-02-24T09:13:57;101591.61;;;8.10;85.57
61488;BME280;47351;53.326;-6.298;2023-02-24T09:17:12;101584.14;;;8.23;85.25
61488;BME280;47351;53.326;-6.298;2023-02-24T09:20:22;101575.88;;;8.49;84.71
61488;BME280;47351;53.326;-6.298;2023-02-24T09:24:03;101570.28;;;8.84;83.96
61488;BME280;47351;53.326;-6.298;2023-02-24T09:27:17;101564.34;;;9.08;83.39
61488;BME280;47351;53.326;-6.298;2023-02-24T09:30:26;101560.15;;;9.24;83.04
61488;BME280;47351;53.326;-6.298;2023-02-24T09:33:40;101553.77;;;9.25;82.59
61488;BME280;47351;53.326;-6.298;2023-02-24T09:36:38;101543.73;;;9.14;82.45
61488;BME280;47351;53.326;-6.298;2023-02-24T09:39:53;101534.84;;;9.03;82.45
61488;BME280;47351;53.326;-6.298;2023-02-24T09:43:20;101527.52;;;8.95;82.46
61488;BME280;47351;53.326;-6.298;2023-02-24T09:46:32;101529.65;;;8.91;82.53
61488;BME280;47351;53.326;-6.298;2023-02-24T09:49:46;101533.69;;;8.82;82.75
61488;BME280;47351;53.326;-6.298;2023-02-24T09:52:54;101541.27;;;8.79;83.07
61488;BME280;47351;53.326;-6.298;2023-02-24T09:55:59;101544.72;;;8.76;83.22
61488;BME280;47351;53.326;-6.298;2023-02-24T09:59:06;101547.80;;;8.75;83.41
61488;BME280;47351;53.326;-6.298;2023-02-24T10:02:23;101545.41;;;8.74;83.55
61488;BME280;47351;53.326;-6.298;2023-02-24T10:05:33;101550.23;;;8.70;83.59
61488;BME280;47351;53.326;-6.298;2023-02-24T10:08:39;101555.14;;;8.64;83.61
61488;BME280;47351;53.326;-6.298;2023-02-24T10:11:50;101555.55;;;8.61;83.66
61488;BME280;47351;53.326;-6.298;2023-02-24T10:15:01;101544.73;;;8.59;83.63
61488;BME280;47351;53.326;-6.298;2023-02-24T10:18:20;101539.11;;;8.60;83.82
61488;BME280;47351;53.326;-6.298;2023-02-24T10:21:28;101532.67;;;8.65;83.95
61488;BME280;47351;53.326;-6.298;2023-02-24T10:25:00;101536.00;;;8.67;83.90
61488;BME280;47351;53.326;-6.298;2023-02-24T10:28:20;101544.52;;;8.72;83.90
61488;BME280;47351;53.326;-6.298;2023-02-24T10:31:16;101548.48;;;8.78;83.83
61488;BME280;47351;53.326;-6.298;2023-02-24T10:34:33;101555.36;;;8.83;83.77
61488;BME280;47351;53.326;-6.298;2023-02-24T10:37:36;101562.44;;;8.84;83.67
61488;BME280;47351;53.326;-6.298;2023-02-24T10:40:43;101561.20;;;8.83;83.44
61488;BME280;47351;53.326;-6.298;2023-02-24T10:43:52;101552.42;;;8.88;83.33
61488;BME280;47351;53.326;-6.298;2023-02-24T10:47:03;101543.92;;;9.01;82.95
61488;BME280;47351;53.326;-6.298;2023-02-24T10:50:20;101528.15;;;9.52;82.00
61488;BME280;47351;53.326;-6.298;2023-02-24T10:53:11;101514.55;;;10.21;80.57
61488;BME280;47351;53.326;-6.298;2023-02-24T10:56:26;101508.21;;;10.52;79.63
61488;BME280;47351;53.326;-6.298;2023-02-24T10:59:30;101508.24;;;10.54;79.11
61488;BME280;47351;53.326;-6.298;2023-02-24T11:02:49;101515.83;;;10.31;79.15
61488;BME280;47351;53.326;-6.298;2023-02-24T11:05:55;101529.33;;;10.15;79.53
61488;BME280;47351;53.326;-6.298;2023-02-24T11:09:06;101539.16;;;9.98;79.71
61488;BME280;47351;53.326;-6.298;2023-02-24T11:12:43;101551.84;;;9.86;80.15
61488;BME280;47351;53.326;-6.298;2023-02-24T11:16:17;101550.14;;;9.81;80.30
61488;BME280;47351;53.326;-6.298;2023-02-24T11:19:57;101544.27;;;9.91;80.09
61488;BME280;47351;53.326;-6.298;2023-02-24T11:22:48;101542.86;;;10.01;79.72
61488;BME280;47351;53.326;-6.298;2023-02-24T11:25:45;101542.50;;;10.03;79.84
61488;BME280;47351;53.326;-6.298;2023-02-24T11:29:05;101540.34;;;10.85;78.90
61488;BME280;47351;53.326;-6.298;2023-02-24T11:32:24;101529.66;;;12.38;76.39
61488;BME280;47351;53.326;-6.298;2023-02-24T11:35:18;101509.14;;;14.92;72.12
61488;BME280;47351;53.326;-6.298;2023-02-24T11:38:12;101495.79;;;17.17;66.67
61488;BME280;47351;53.326;-6.298;2023-02-24T11:41:08;101498.17;;;19.21;61.72
61488;BME280;47351;53.326;-6.298;2023-02-24T11:44:01;101501.33;;;19.40;58.49
61488;BME280;47351;53.326;-6.298;2023-02-24T11:46:54;101501.77;;;21.35;56.78
61488;BME280;47351;53.326;-6.298;2023-02-24T11:49:45;101496.45;;;23.55;51.38
61488;BME280;47351;53.326;-6.298;2023-02-24T11:52:37;101481.11;;;25.42;47.02
61488;BME280;47351;53.326;-6.298;2023-02-24T11:55:28;101468.00;;;26.98;44.83
61488;BME280;47351;53.326;-6.298;2023-02-24T11:58:22;101466.77;;;28.15;42.01
61488;BME280;47351;53.326;-6.298;2023-02-24T12:01:13;101462.09;;;27.62;40.03
61488;BME280;47351;53.326;-6.298;2023-02-24T12:04:08;101462.02;;;26.73;39.41
61488;BME280;47351;53.326;-6.298;2023-02-24T12:07:00;101462.71;;;26.85;38.52
61488;BME280;47351;53.326;-6.298;2023-02-24T12:09:55;101469.84;;;24.97;40.01
61488;BME280;47351;53.326;-6.298;2023-02-24T12:13:07;101473.75;;;22.39;41.74
61488;BME280;47351;53.326;-6.298;2023-02-24T12:16:08;101473.66;;;20.38;44.54
61488;BME280;47351;53.326;-6.298;2023-02-24T12:18:59;101468.08;;;19.09;46.45
61488;BME280;47351;53.326;-6.298;2023-02-24T12:21:52;101462.11;;;18.13;47.88
61488;BME280;47351;53.326;-6.298;2023-02-24T12:24:50;101465.16;;;17.24;49.25
61488;BME280;47351;53.326;-6.298;2023-02-24T12:27:40;101462.82;;;16.29;50.74
61488;BME280;47351;53.326;-6.298;2023-02-24T12:30:42;101469.48;;;15.45;52.25
61488;BME280;47351;53.326;-6.298;2023-02-24T12:33:45;101468.20;;;14.75;54.06
61488;BME280;47351;53.326;-6.298;2023-02-24T12:36:44;101465.10;;;14.13;55.27
61488;BME280;47351;53.326;-6.298;2023-02-24T12:39:38;101468.90;;;13.69;56.61
61488;BME280;47351;53.326;-6.298;2023-02-24T12:42:32;101473.20;;;13.41;57.91
61488;BME280;47351;53.326;-6.298;2023-02-24T12:45:30;101475.52;;;13.11;58.68
61488;BME280;47351;53.326;-6.298;2023-02-24T12:48:31;101477.13;;;12.84;59.57
61488;BME280;47351;53.326;-6.298;2023-02-24T12:51:31;101471.88;;;12.81;60.19
61488;BME280;47351;53.326;-6.298;2023-02-24T12:54:38;101463.17;;;12.88;60.13
61488;BME280;47351;53.326;-6.298;2023-02-24T12:57:30;101461.72;;;12.92;60.41
61488;BME280;47351;53.326;-6.298;2023-02-24T13:00:30;101455.97;;;12.76;60.84
61488;BME280;47351;53.326;-6.298;2023-02-24T13:03:26;101456.00;;;12.76;61.67
61488;BME280;47351;53.326;-6.298;2023-02-24T13:06:17;101444.54;;;13.02;61.69
61488;BME280;47351;53.326;-6.298;2023-02-24T13:09:12;101436.63;;;13.72;60.94
61488;BME280;47351;53.326;-6.298;2023-02-24T13:12:12;101431.22;;;14.08;60.08
61488;BME280;47351;53.326;-6.298;2023-02-24T13:15:20;101429.77;;;13.94;59.22
61488;BME280;47351;53.326;-6.298;2023-02-24T13:18:31;101433.77;;;13.51;59.94
61488;BME280;47351;53.326;-6.298;2023-02-24T13:21:29;101432.42;;;13.14;60.76
61488;BME280;47351;53.326;-6.298;2023-02-24T13:24:38;101431.64;;;12.79;61.62
61488;BME280;47351;53.326;-6.298;2023-02-24T13:27:34;101431.81;;;12.63;62.48
61488;BME280;47351;53.326;-6.298;2023-02-24T13:30:28;101435.13;;;12.46;62.97
61488;BME280;47351;53.326;-6.298;2023-02-24T13:33:33;101431.55;;;12.33;63.82
61488;BME280;47351;53.326;-6.298;2023-02-24T13:36:25;101426.27;;;12.29;64.37
61488;BME280;47351;53.326;-6.298;2023-02-24T13:39:22;101428.63;;;12.14;64.78
61488;BME280;47351;53.326;-6.298;2023-02-24T13:42:21;101425.23;;;11.92;65.31
61488;BME280;47351;53.326;-6.298;2023-02-24T13:45:18;101425.34;;;11.80;65.75
61488;BME280;47351;53.326;-6.298;2023-02-24T13:48:26;101420.48;;;11.67;66.46
61488;BME280;47351;53.326;-6.298;2023-02-24T13:51:34;101416.91;;;11.58;67.14
61488;BME280;47351;53.326;-6.298;2023-02-24T13:54:59;101417.84;;;11.50;67.80
61488;BME280;47351;53.326;-6.298;2023-02-24T13:58:04;101419.90;;;11.42;68.34
61488;BME280;47351;53.326;-6.298;2023-02-24T14:01:06;101415.13;;;11.41;68.55
61488;BME280;47351;53.326;-6.298;2023-02-24T14:04:03;101415.17;;;11.39;68.77
61488;BME280;47351;53.326;-6.298;2023-02-24T14:07:15;101414.90;;;11.32;69.23
61488;BME280;47351;53.326;-6.298;2023-02-24T14:10:14;101408.59;;;11.29;69.56
61488;BME280;47351;53.326;-6.298;2023-02-24T14:13:16;101406.25;;;11.24;69.80
61488;BME280;47351;53.326;-6.298;2023-02-24T14:16:15;101407.70;;;11.27;69.91
61488;BME280;47351;53.326;-6.298;2023-02-24T14:19:18;101401.81;;;11.23;70.25
61488;BME280;47351;53.326;-6.298;2023-02-24T14:22:18;101398.35;;;11.20;70.66
61488;BME280;47351;53.326;-6.298;2023-02-24T14:25:20;101390.54;;;11.25;70.74
61488;BME280;47351;53.326;-6.298;2023-02-24T14:28:14;101384.48;;;11.40;70.78
61488;BME280;47351;53.326;-6.298;2023-02-24T14:31:26;101377.23;;;11.52;70.83
61488;BME280;47351;53.326;-6.298;2023-02-24T14:34:20;101378.73;;;11.55;70.67
61488;BME280;47351;53.326;-6.298;2023-02-24T14:37:10;101374.58;;;11.51;70.74
61488;BME280;47351;53.326;-6.298;2023-02-24T14:40:13;101366.33;;;11.48;70.75
61488;BME280;47351;53.326;-6.298;2023-02-24T14:43:12;101369.58;;;11.42;70.88
61488;BME280;47351;53.326;-6.298;2023-02-24T14:46:04;101374.32;;;11.34;71.07
61488;BME280;47351;53.326;-6.298;2023-02-24T14:48:53;101383.02;;;11.24;71.00
61488;BME280;47351;53.326;-6.298;2023-02-24T14:52:03;101383.05;;;11.16;71.17
61488;BME280;47351;53.326;-6.298;2023-02-24T14:55:15;101365.23;;;11.13;71.25
61488;BME280;47351;53.326;-6.298;2023-02-24T14:58:05;101346.37;;;11.16;71.21
61488;BME280;47351;53.326;-6.298;2023-02-24T15:01:04;101344.91;;;11.20;71.12
61488;BME280;47351;53.326;-6.298;2023-02-24T15:03:57;101348.16;;;11.20;71.45
61488;BME280;47351;53.326;-6.298;2023-02-24T15:06:49;101362.50;;;11.34;71.64
61488;BME280;47351;53.326;-6.298;2023-02-24T15:09:58;101367.86;;;11.44;71.51
61488;BME280;47351;53.326;-6.298;2023-02-24T15:13:09;101358.31;;;11.37;70.90
61488;BME280;47351;53.326;-6.298;2023-02-24T15:16:20;101346.77;;;11.28;70.44
61488;BME280;47351;53.326;-6.298;2023-02-24T15:19:32;101347.14;;;11.32;70.20
61488;BME280;47351;53.326;-6.298;2023-02-24T15:22:27;101344.48;;;11.80;69.56
61488;BME280;47351;53.326;-6.298;2023-02-24T15:25:26;101341.36;;;11.88;69.07
61488;BME280;47351;53.326;-6.298;2023-02-24T15:28:30;101339.59;;;11.99;68.67
61488;BME280;47351;53.326;-6.298;2023-02-24T15:31:19;101335.11;;;12.06;68.37
61488;BME280;47351;53.326;-6.298;2023-02-24T15:34:13;101330.29;;;12.01;68.10
61488;BME280;47351;53.326;-6.298;2023-02-24T15:37:19;101325.29;;;11.99;67.98
61488;BME280;47351;53.326;-6.298;2023-02-24T15:40:16;101318.71;;;12.24;67.63
61488;BME280;47351;53.326;-6.298;2023-02-24T15:43:29;101316.02;;;12.29;67.31
61488;BME280;47351;53.326;-6.298;2023-02-24T15:46:22;101318.29;;;12.24;67.01
61488;BME280;47351;53.326;-6.298;2023-02-24T15:49:12;101325.20;;;12.13;66.78
61488;BME280;47351;53.326;-6.298;2023-02-24T15:52:01;101330.20;;;12.00;66.53
61488;BME280;47351;53.326;-6.298;2023-02-24T15:55:11;101320.71;;;11.87;66.05
61488;BME280;47351;53.326;-6.298;2023-02-24T15:58:02;101321.80;;;11.74;65.76
61488;BME280;47351;53.326;-6.298;2023-02-24T16:00:54;101324.94;;;11.68;65.76
61488;BME280;47351;53.326;-6.298;2023-02-24T16:04:03;101319.38;;;11.62;65.71
61488;BME280;47351;53.326;-6.298;2023-02-24T16:07:23;101322.20;;;11.53;65.91
61488;BME280;47351;53.326;-6.298;2023-02-24T16:10:16;101323.17;;;11.47;66.01
61488;BME280;47351;53.326;-6.298;2023-02-24T16:13:25;101326.69;;;11.41;66.18
61488;BME280;47351;53.326;-6.298;2023-02-24T16:16:25;101321.16;;;11.35;66.57
61488;BME280;47351;53.326;-6.298;2023-02-24T16:19:19;101322.83;;;11.34;66.90
61488;BME280;47351;53.326;-6.298;2023-02-24T16:22:28;101327.85;;;11.27;67.07
61488;BME280;47351;53.326;-6.298;2023-02-24T16:25:38;101327.71;;;11.19;67.31